createdAt,value
2023-05-09T00:03:19.711Z,1010.5
2023-05-09T00:08:25.787Z,1010.5
2023-05-09T00:13:31.961Z,1010.4
2023-05-09T00:18:38.004Z,1010.4
2023-05-09T00:23:44.103Z,1010.4
2023-05-09T00:28:50.184Z,1010.4
2023-05-09T00:33:56.383Z,1010.5
2023-05-09T00:39:02.400Z,1010.4
2023-05-09T00:44:08.495Z,1010.3
2023-05-09T00:49:14.582Z,1010.3
2023-05-09T00:54:20.673Z,1010.2
2023-05-09T00:59:26.781Z,1010.2
2023-05-09T01:04:32.881Z,1010.2
2023-05-09T01:09:37.994Z,1010.2
2023-05-09T01:14:44.086Z,1010.1
2023-05-09T01:19:50.199Z,1010
2023-05-09T01:24:56.272Z,1010
2023-05-09T01:30:02.385Z,1010
2023-05-09T01:35:08.496Z,1010
2023-05-09T01:40:14.565Z,1010
2023-05-09T01:45:20.739Z,1010
2023-05-09T01:50:26.776Z,1010
2023-05-09T01:55:32.882Z,1009.9
2023-05-09T02:00:38.946Z,1009.9
2023-05-09T02:05:45.057Z,1009.9
2023-05-09T02:10:51.224Z,1009.8
2023-05-09T02:15:56.265Z,1009.9
2023-05-09T02:21:02.382Z,1009.8
2023-05-09T02:26:07.488Z,1009.9
2023-05-09T02:31:13.571Z,1009.9
2023-05-09T02:36:19.701Z,1009.9
2023-05-09T02:41:25.781Z,1009.9
2023-05-09T02:46:31.935Z,1009.8
2023-05-09T02:51:37.966Z,1009.9
2023-05-09T02:56:44.081Z,1009.8
2023-05-09T03:01:50.168Z,1009.9
2023-05-09T03:06:56.274Z,1009.8
2023-05-09T03:12:02.357Z,1009.8
2023-05-09T03:17:08.463Z,1009.8
2023-05-09T03:22:14.561Z,1009.8
2023-05-09T03:27:20.653Z,1009.8
2023-05-09T03:32:25.760Z,1009.8
2023-05-09T03:37:31.976Z,1009.8
2023-05-09T03:42:38.021Z,1009.8
2023-05-09T03:47:44.059Z,1009.8
2023-05-09T03:52:50.174Z,1009.7
2023-05-09T03:57:56.258Z,1009.7
2023-05-09T04:03:02.353Z,1009.7
2023-05-09T04:08:08.585Z,1009.6
2023-05-09T04:13:14.554Z,1009.6
2023-05-09T04:18:20.659Z,1009.7
2023-05-09T04:23:26.749Z,1009.6
2023-05-09T04:28:32.866Z,1009.6
2023-05-09T04:33:39.019Z,1009.4
2023-05-09T04:38:44.070Z,1009.4
2023-05-09T04:43:50.170Z,1009.4
2023-05-09T04:48:56.262Z,1009.5
2023-05-09T04:54:02.358Z,1009.4
2023-05-09T04:59:08.476Z,1009.4
2023-05-09T05:04:14.555Z,1009.4
2023-05-09T05:09:20.646Z,1009.3
2023-05-09T05:14:26.748Z,1009.3
2023-05-09T05:19:32.843Z,1009.2
2023-05-09T05:24:39.103Z,1009.2
2023-05-09T05:29:45.067Z,1009.3
2023-05-09T05:34:51.134Z,1009.2
2023-05-09T05:39:57.230Z,1009.2
2023-05-09T05:45:02.415Z,1009.1
2023-05-09T05:50:08.506Z,1009.1
2023-05-09T05:55:14.549Z,1009.1
2023-05-09T06:00:20.632Z,1009
2023-05-09T06:05:26.782Z,1009
2023-05-09T06:10:32.877Z,1009
2023-05-09T06:15:38.936Z,1008.9
2023-05-09T06:20:45.172Z,1008.8
2023-05-09T06:25:51.124Z,1008.8
2023-05-09T06:30:57.225Z,1008.8
2023-05-09T06:36:03.328Z,1008.7
2023-05-09T06:41:09.420Z,1008.7
2023-05-09T06:46:15.497Z,1008.7
2023-05-09T06:51:20.639Z,1008.6
2023-05-09T06:56:26.720Z,1008.5
2023-05-09T07:01:32.819Z,1008.4
2023-05-09T07:06:38.937Z,1008.4
2023-05-09T07:11:45.012Z,1008.4
2023-05-09T07:16:51.113Z,1008.3
2023-05-09T07:21:57.287Z,1008.2
2023-05-09T07:27:03.298Z,1008.2
2023-05-09T07:32:09.391Z,1008.1
2023-05-09T07:37:15.502Z,1008.1
2023-05-09T07:42:21.591Z,1008.1
2023-05-09T07:47:27.688Z,1007.9
2023-05-09T07:52:33.771Z,1007.9
2023-05-09T07:57:38.874Z,1007.8
2023-05-09T08:02:44.976Z,1007.8
2023-05-09T08:07:51.085Z,1007.8
2023-05-09T08:12:57.161Z,1007.6
2023-05-09T08:18:03.256Z,1007.5
2023-05-09T08:23:09.361Z,1007.4
2023-05-09T08:28:15.521Z,1007.4
2023-05-09T08:33:21.578Z,1007.3
2023-05-09T08:43:33.761Z,1007.1
2023-05-09T08:48:39.860Z,1007.1
2023-05-09T08:53:45.938Z,1007.1
2023-05-09T08:58:52.051Z,1007
2023-05-09T09:03:57.154Z,1007.1
2023-05-09T09:09:03.254Z,1007
2023-05-09T09:14:09.354Z,1007
2023-05-09T09:19:15.435Z,1006.9
2023-05-09T09:24:21.547Z,1006.8
2023-05-09T09:29:27.640Z,1006.7
2023-05-09T09:34:33.752Z,1006.7
2023-05-09T09:39:39.817Z,1006.8
2023-05-09T09:44:45.913Z,1006.7
2023-05-09T09:49:52.028Z,1006.5
2023-05-09T09:54:58.254Z,1006.5
2023-05-09T10:00:04.227Z,1006.4
2023-05-09T10:05:10.309Z,1006.3
2023-05-09T10:10:15.406Z,1006.3
2023-05-09T10:15:21.516Z,1006.3
2023-05-09T10:20:27.604Z,1006.2
2023-05-09T10:25:33.722Z,1006
2023-05-09T10:30:39.869Z,1006
2023-05-09T10:35:46.113Z,1005.9
2023-05-09T10:40:52.038Z,1005.8
2023-05-09T10:45:58.192Z,1005.7
2023-05-09T10:51:04.269Z,1005.6
2023-05-09T10:56:10.336Z,1005.5
2023-05-09T11:01:16.444Z,1005.5
2023-05-09T11:06:22.577Z,1005.4
2023-05-09T11:11:28.695Z,1005.3
2023-05-09T11:16:33.712Z,1005.2
2023-05-09T11:21:39.881Z,1005.1
2023-05-09T11:26:45.900Z,1004.9
2023-05-09T11:31:52.140Z,1004.8
2023-05-09T11:36:58.198Z,1004.8
2023-05-09T11:42:04.361Z,1004.6
2023-05-09T11:47:10.446Z,1004.5
2023-05-09T11:52:16.356Z,1004.4
2023-05-09T11:57:22.455Z,1004.4
2023-05-09T12:02:28.618Z,1004.4
2023-05-09T12:07:34.673Z,1004.4
2023-05-09T12:12:40.901Z,1004.3
2023-05-09T12:17:46.923Z,1004.1
2023-05-09T12:22:51.986Z,1004.1
2023-05-09T12:27:58.168Z,1003.9
2023-05-09T12:33:04.163Z,1003.8
2023-05-09T12:38:10.305Z,1003.7
2023-05-09T12:43:16.531Z,1003.6
2023-05-09T12:48:22.551Z,1003.5
2023-05-09T12:53:28.542Z,1003.5
2023-05-09T12:58:34.842Z,1003.3
2023-05-09T13:03:40.728Z,1003.1
2023-05-09T13:08:46.889Z,1003.1
2023-05-09T13:13:52.920Z,1003.1
2023-05-09T13:18:59.031Z,1003.1
2023-05-09T13:24:05.199Z,1003
2023-05-09T13:29:10.303Z,1002.8
2023-05-09T13:34:16.332Z,1002.7
2023-05-09T13:39:22.419Z,1002.6
2023-05-09T13:44:28.536Z,1002.5
2023-05-09T13:49:34.620Z,1002.5
2023-05-09T13:54:40.709Z,1002.5
2023-05-09T13:59:46.827Z,1002.3
2023-05-09T14:04:52.901Z,1002.3
2023-05-09T14:09:59.008Z,1002.3
2023-05-09T14:15:05.092Z,1002.2
2023-05-09T14:20:11.210Z,1002.3
2023-05-09T14:25:17.291Z,1002.2
2023-05-09T14:30:23.419Z,1002.1
2023-05-09T14:35:28.487Z,1002.1
2023-05-09T14:40:34.666Z,1002
2023-05-09T14:45:40.687Z,1001.9
2023-05-09T14:50:46.805Z,1001.8
2023-05-09T14:55:52.891Z,1001.8
2023-05-09T15:00:58.980Z,1001.7
2023-05-09T15:06:05.101Z,1001.6
2023-05-09T15:11:11.182Z,1001.5
2023-05-09T15:16:17.369Z,1001.5
2023-05-09T15:21:23.397Z,1001.5
2023-05-09T15:26:29.461Z,1001.4
2023-05-09T15:31:35.567Z,1001.4
2023-05-09T15:36:41.735Z,1001.3
2023-05-09T15:41:46.779Z,1001.3
2023-05-09T15:46:52.863Z,1001.2
2023-05-09T15:51:58.967Z,1001.1
2023-05-09T15:57:05.117Z,1001.1
2023-05-09T16:02:11.224Z,1001.1
2023-05-09T16:07:17.240Z,1001
2023-05-09T16:12:23.347Z,1000.9
2023-05-09T16:17:29.429Z,1000.7
2023-05-09T16:22:35.533Z,1000.6
2023-05-09T16:27:41.637Z,1000.5
2023-05-09T16:32:47.726Z,1000.4
2023-05-09T16:37:53.837Z,1000.4
2023-05-09T16:42:59.926Z,1000.3
2023-05-09T16:48:05.053Z,1000.3
2023-05-09T16:53:11.122Z,1000.3
2023-05-09T16:58:17.204Z,1000.2
2023-05-09T17:03:23.319Z,1000.1
2023-05-09T17:08:29.417Z,1000
2023-05-09T17:13:35.522Z,1000
2023-05-09T17:18:41.593Z,1000
2023-05-09T17:23:47.704Z,999.9
2023-05-09T17:28:53.799Z,999.9
2023-05-09T17:33:59.882Z,999.9
2023-05-09T17:39:05.989Z,999.9
2023-05-09T17:44:12.073Z,999.8
2023-05-09T17:49:18.188Z,999.8
2023-05-09T17:54:23.323Z,999.8
2023-05-09T17:59:29.389Z,999.7
2023-05-09T18:04:35.482Z,999.7
2023-05-09T18:09:41.568Z,999.7
2023-05-09T18:14:47.710Z,999.6
2023-05-09T18:19:53.782Z,999.7
2023-05-09T18:24:59.861Z,999.8
2023-05-09T18:30:06.065Z,999.7
2023-05-09T18:35:12.039Z,999.8
2023-05-09T18:40:18.179Z,999.7
2023-05-09T18:45:24.263Z,999.8
2023-05-09T18:50:30.333Z,999.8
2023-05-09T18:55:36.474Z,999.8
2023-05-09T19:00:41.554Z,999.8
2023-05-09T19:05:47.798Z,999.7
2023-05-09T19:10:53.908Z,999.7
2023-05-09T19:15:59.823Z,999.7
2023-05-09T19:21:05.952Z,999.6
2023-05-09T19:26:12.072Z,999.6
2023-05-09T19:31:17.238Z,999.6
2023-05-09T19:36:23.254Z,999.6
2023-05-09T19:41:29.376Z,999.6
2023-05-09T19:46:35.510Z,999.5
2023-05-09T19:51:41.642Z,999.4
2023-05-09T19:56:47.618Z,999.4
2023-05-09T20:01:53.784Z,999.4
2023-05-09T20:06:59.806Z,999.3
2023-05-09T20:12:05.923Z,999.3
2023-05-09T20:17:12.043Z,999.3
2023-05-09T20:22:18.195Z,999.2
2023-05-09T20:27:24.288Z,999.3
2023-05-09T20:32:30.291Z,999.2
2023-05-09T20:37:35.492Z,999.2
2023-05-09T20:42:41.491Z,999.1
2023-05-09T20:47:47.619Z,999.1
2023-05-09T20:52:53.706Z,999.1
2023-05-09T20:57:59.794Z,999.2
2023-05-09T21:03:05.958Z,999.1
2023-05-09T21:08:11.971Z,999.1
2023-05-09T21:13:18.098Z,999.1
2023-05-09T21:18:24.188Z,999
2023-05-09T21:23:30.252Z,999
2023-05-09T21:28:36.389Z,999
2023-05-09T21:33:42.453Z,998.9
2023-05-09T21:38:48.575Z,998.9
2023-05-09T21:43:53.653Z,998.9
2023-05-09T21:48:59.760Z,998.8
2023-05-09T21:54:05.862Z,998.8
2023-05-09T21:59:11.958Z,998.7
2023-05-09T22:04:18.050Z,998.7
2023-05-09T22:09:24.148Z,998.7
2023-05-09T22:14:30.235Z,998.6
2023-05-09T22:19:36.356Z,998.5
2023-05-09T22:24:42.422Z,998.5
2023-05-09T22:29:48.526Z,998.4
2023-05-09T22:34:54.632Z,998.5
2023-05-09T22:40:00.729Z,998.4
2023-05-09T22:45:06.820Z,998.4
2023-05-09T22:50:11.929Z,998.4
2023-05-09T22:55:18.035Z,998.4
2023-05-09T23:00:24.128Z,998.4
2023-05-09T23:05:30.275Z,998.3
2023-05-09T23:10:36.320Z,998.2
2023-05-09T23:15:42.405Z,998.2
2023-05-09T23:20:48.540Z,998.2
2023-05-09T23:25:54.610Z,998.2
2023-05-09T23:31:00.717Z,998.1
2023-05-09T23:36:06.807Z,998
2023-05-09T23:41:12.897Z,998
2023-05-09T23:46:19.000Z,998
2023-05-09T23:51:25.079Z,997.9
2023-05-09T23:56:30.200Z,997.9
